createdAt,value
2018-06-27T00:01:15.035Z,26.30
2018-06-27T00:03:45.974Z,26.47
2018-06-27T00:06:16.618Z,27.70
2018-06-27T00:08:47.440Z,26.70
2018-06-27T00:11:18.199Z,28.03
2018-06-27T00:13:48.930Z,27.47
2018-06-27T00:16:19.885Z,29.97
2018-06-27T00:18:50.429Z,29.20
2018-06-27T00:21:21.336Z,31.10
2018-06-27T00:23:52.101Z,31.73
2018-06-27T00:26:23.919Z,30.47
2018-06-27T00:28:54.608Z,30.70
2018-06-27T00:31:25.618Z,31.40
2018-06-27T00:33:56.153Z,29.33
2018-06-27T00:36:26.258Z,29.07
2018-06-27T00:38:56.907Z,28.07
2018-06-27T00:41:27.642Z,27.27
2018-06-27T00:43:58.241Z,26.87
2018-06-27T00:46:29.230Z,27.67
2018-06-27T00:48:59.891Z,27.57
2018-06-27T00:51:30.228Z,27.47
2018-06-27T00:54:05.793Z,26.40
2018-06-27T00:56:38.206Z,24.07
2018-06-27T00:59:09.223Z,25.80
2018-06-27T01:01:40.395Z,24.27
2018-06-27T01:04:11.140Z,23.67
2018-06-27T01:06:42.027Z,23.13
2018-06-27T01:09:12.983Z,23.37
2018-06-27T01:11:43.829Z,23.67
2018-06-27T01:14:14.729Z,23.80
2018-06-27T01:16:46.244Z,23.07
2018-06-27T01:19:16.837Z,25.17
2018-06-27T01:21:47.754Z,25.33
2018-06-27T01:24:18.828Z,27.93
2018-06-27T01:26:49.303Z,30.67
2018-06-27T01:29:19.952Z,30.70
2018-06-27T01:31:50.696Z,28.60
2018-06-27T01:34:21.398Z,24.83
2018-06-27T01:36:52.407Z,25.37
2018-06-27T01:39:24.042Z,24.43
2018-06-27T01:41:55.232Z,23.83
2018-06-27T01:44:25.958Z,25.67
2018-06-27T01:46:57.811Z,22.33
2018-06-27T01:49:28.495Z,19.20
2018-06-27T01:51:59.008Z,19.60
2018-06-27T01:54:29.735Z,15.97
2018-06-27T01:57:00.631Z,15.17
2018-06-27T01:59:31.323Z,14.60
2018-06-27T02:02:02.049Z,13.10
2018-06-27T02:04:32.043Z,13.57
2018-06-27T02:07:02.639Z,14.00
2018-06-27T02:09:33.471Z,13.13
2018-06-27T02:12:04.035Z,11.33
2018-06-27T02:14:34.855Z,11.10
2018-06-27T02:17:05.907Z,11.20
2018-06-27T02:19:36.978Z,11.93
2018-06-27T02:22:07.327Z,12.40
2018-06-27T02:24:38.138Z,11.80
2018-06-27T02:27:08.946Z,10.40
2018-06-27T02:29:40.056Z,10.73
2018-06-27T02:32:10.631Z,10.37
2018-06-27T02:34:41.480Z,10.10
2018-06-27T02:37:12.449Z,9.40
2018-06-27T02:39:43.103Z,9.83
2018-06-27T02:42:14.489Z,10.73
2018-06-27T02:44:44.729Z,11.30
2018-06-27T02:47:15.593Z,11.50
2018-06-27T02:49:47.434Z,11.40
2018-06-27T02:52:18.234Z,11.20
2018-06-27T02:54:48.990Z,11.50
2018-06-27T02:57:20.140Z,11.27
2018-06-27T02:59:50.922Z,10.50
2018-06-27T03:02:21.567Z,11.10
2018-06-27T03:04:52.446Z,10.07
2018-06-27T03:07:23.301Z,10.63
2018-06-27T03:09:54.207Z,10.83
2018-06-27T03:12:24.874Z,11.57
2018-06-27T03:14:55.612Z,11.27
2018-06-27T03:17:26.491Z,10.47
2018-06-27T03:19:56.894Z,12.10
2018-06-27T03:22:27.810Z,11.90
2018-06-27T03:24:58.716Z,12.53
2018-06-27T03:27:29.353Z,12.37
2018-06-27T03:30:00.219Z,12.57
2018-06-27T03:32:30.792Z,12.90
2018-06-27T03:35:01.491Z,12.43
2018-06-27T03:37:31.757Z,13.40
2018-06-27T03:40:02.627Z,14.77
2018-06-27T03:42:32.838Z,16.40
2018-06-27T03:45:03.771Z,17.43
2018-06-27T03:47:33.579Z,20.77
2018-06-27T03:50:03.511Z,20.60
2018-06-27T03:52:33.384Z,21.23
2018-06-27T03:55:03.337Z,21.67
2018-06-27T03:57:33.224Z,21.70
2018-06-27T04:00:03.183Z,20.60
2018-06-27T04:02:33.185Z,20.70
2018-06-27T04:05:03.126Z,20.70
2018-06-27T04:07:33.062Z,19.60
2018-06-27T04:10:03.238Z,20.27
2018-06-27T04:12:33.179Z,20.53
2018-06-27T04:15:03.061Z,18.97
2018-06-27T04:17:32.904Z,18.67
2018-06-27T04:20:02.733Z,18.13
2018-06-27T04:22:34.375Z,18.47
2018-06-27T04:25:04.479Z,16.40
2018-06-27T04:27:34.343Z,15.93
2018-06-27T04:30:04.755Z,16.47
2018-06-27T04:32:34.663Z,14.93
2018-06-27T04:35:04.577Z,15.30
2018-06-27T04:37:34.473Z,14.87
2018-06-27T04:40:04.420Z,13.67
2018-06-27T04:42:34.275Z,12.43
2018-06-27T04:45:04.219Z,11.93
2018-06-27T04:47:34.017Z,12.70
2018-06-27T04:50:03.878Z,12.33
2018-06-27T04:52:33.758Z,10.63
2018-06-27T04:55:03.613Z,9.93
2018-06-27T04:57:33.464Z,10.10
2018-06-27T05:00:03.322Z,10.67
2018-06-27T05:02:33.226Z,10.47
2018-06-27T05:05:03.056Z,10.33
2018-06-27T05:07:32.951Z,9.50
2018-06-27T05:10:02.754Z,10.37
2018-06-27T05:12:32.579Z,8.83
2018-06-27T05:15:02.424Z,8.20
2018-06-27T05:17:32.317Z,7.60
2018-06-27T05:20:02.262Z,7.90
2018-06-27T05:22:32.082Z,9.00
2018-06-27T05:25:01.990Z,8.53
2018-06-27T05:27:31.843Z,7.63
2018-06-27T05:30:01.787Z,7.33
2018-06-27T05:32:31.700Z,8.03
2018-06-27T05:35:01.495Z,8.07
2018-06-27T05:37:31.340Z,8.00
2018-06-27T05:40:01.182Z,7.33
2018-06-27T05:42:30.960Z,7.00
2018-06-27T05:45:00.783Z,8.40
2018-06-27T05:47:30.916Z,7.47
2018-06-27T05:50:00.767Z,8.00
2018-06-27T05:52:30.606Z,6.90
2018-06-27T05:55:05.496Z,7.33
2018-06-27T05:57:35.487Z,6.70
2018-06-27T06:00:06.131Z,7.70
2018-06-27T06:02:36.049Z,7.90
2018-06-27T06:05:06.472Z,7.73
2018-06-27T06:07:36.344Z,8.27
2018-06-27T06:10:06.323Z,9.00
2018-06-27T06:12:36.202Z,9.83
2018-06-27T06:15:06.122Z,10.13
2018-06-27T06:17:35.997Z,11.23
2018-06-27T06:20:05.910Z,10.43
2018-06-27T06:22:35.850Z,10.70
2018-06-27T06:25:06.179Z,10.97
2018-06-27T06:27:36.058Z,11.90
2018-06-27T06:30:06.337Z,11.17
2018-06-27T06:32:36.282Z,11.27
2018-06-27T06:35:06.113Z,11.00
2018-06-27T06:37:36.099Z,11.57
2018-06-27T06:40:06.217Z,11.17
2018-06-27T06:42:36.149Z,10.87
2018-06-27T06:45:06.144Z,10.83
2018-06-27T06:47:36.020Z,9.63
2018-06-27T06:50:06.174Z,9.93
2018-06-27T06:52:36.031Z,9.10
2018-06-27T06:55:06.466Z,10.00
2018-06-27T06:57:36.757Z,11.20
2018-06-27T07:00:06.946Z,10.57
2018-06-27T07:02:37.085Z,11.37
2018-06-27T07:05:06.967Z,10.83
2018-06-27T07:07:36.801Z,12.10
2018-06-27T07:10:06.704Z,12.07
2018-06-27T07:12:36.597Z,12.70
2018-06-27T07:15:06.471Z,12.37
2018-06-27T07:17:36.465Z,13.83
2018-06-27T07:20:06.397Z,12.57
2018-06-27T07:22:36.266Z,12.90
2018-06-27T07:25:06.084Z,14.13
2018-06-27T07:27:35.955Z,14.73
2018-06-27T07:30:06.033Z,13.87
2018-06-27T07:32:35.943Z,14.97
2018-06-27T07:35:06.021Z,15.87
2018-06-27T07:37:35.974Z,16.23
2018-06-27T07:40:06.008Z,17.53
2018-06-27T07:42:35.921Z,18.20
2018-06-27T07:45:05.815Z,16.63
2018-06-27T07:47:35.700Z,19.63
2018-06-27T07:50:06.045Z,21.77
2018-06-27T07:52:35.880Z,18.53
2018-06-27T07:55:05.770Z,20.10
2018-06-27T07:57:35.576Z,17.10
2018-06-27T08:00:06.256Z,16.17
2018-06-27T08:02:36.096Z,14.97
2018-06-27T08:05:06.151Z,13.50
2018-06-27T08:07:35.977Z,14.60
2018-06-27T08:10:05.941Z,11.03
2018-06-27T08:12:35.863Z,9.80
2018-06-27T08:15:05.863Z,12.63
2018-06-27T08:17:35.890Z,12.73
2018-06-27T08:20:05.716Z,13.33
2018-06-27T08:22:42.049Z,12.13
2018-06-27T08:25:12.405Z,9.40
2018-06-27T08:27:42.330Z,8.40
2018-06-27T08:30:12.261Z,7.67
2018-06-27T08:32:42.754Z,7.50
2018-06-27T08:35:12.639Z,6.10
2018-06-27T08:37:42.563Z,5.57
2018-06-27T08:40:12.412Z,5.07
2018-06-27T08:42:42.219Z,6.10
2018-06-27T08:45:12.040Z,5.00
2018-06-27T08:47:41.941Z,4.07
2018-06-27T08:50:12.015Z,4.90
2018-06-27T08:52:42.142Z,4.47
2018-06-27T08:55:11.992Z,3.47
2018-06-27T08:57:41.800Z,3.40
2018-06-27T09:00:11.616Z,4.07
2018-06-27T09:02:41.485Z,4.10
2018-06-27T09:05:11.305Z,3.80
2018-06-27T09:07:41.156Z,3.80
2018-06-27T09:10:11.014Z,3.30
2018-06-27T09:12:40.934Z,3.83
2018-06-27T09:15:10.818Z,3.83
2018-06-27T09:17:40.724Z,3.90
2018-06-27T09:20:10.833Z,3.53
2018-06-27T09:22:40.728Z,3.97
2018-06-27T09:25:10.712Z,4.10
2018-06-27T09:27:40.601Z,3.67
2018-06-27T09:30:10.500Z,3.73
2018-06-27T09:32:40.428Z,3.80
2018-06-27T09:35:10.298Z,3.97
2018-06-27T09:37:40.098Z,4.13
2018-06-27T09:40:09.969Z,4.60
2018-06-27T09:42:39.822Z,5.80
2018-06-27T09:45:09.626Z,5.67
2018-06-27T09:47:39.393Z,6.47
2018-06-27T09:50:09.288Z,5.60
2018-06-27T09:52:39.102Z,6.23
2018-06-27T09:55:08.986Z,6.30
2018-06-27T09:57:38.815Z,6.70
2018-06-27T10:00:12.816Z,7.00
2018-06-27T10:02:42.659Z,6.87
2018-06-27T10:05:12.644Z,7.53
2018-06-27T10:07:42.555Z,8.13
2018-06-27T10:10:12.455Z,7.57
2018-06-27T10:12:42.315Z,8.40
2018-06-27T10:15:12.163Z,8.40
2018-06-27T10:17:42.003Z,8.07
2018-06-27T10:20:11.986Z,8.47
2018-06-27T10:22:41.984Z,9.03
2018-06-27T10:25:11.872Z,8.43
2018-06-27T10:27:42.175Z,8.53
2018-06-27T10:30:11.996Z,9.73
2018-06-27T10:32:41.966Z,9.60
2018-06-27T10:35:11.844Z,9.03
2018-06-27T10:37:41.669Z,9.33
2018-06-27T10:40:11.442Z,10.70
2018-06-27T10:42:41.209Z,10.27
2018-06-27T10:45:11.061Z,10.00
2018-06-27T10:47:40.892Z,10.43
2018-06-27T10:50:10.677Z,13.30
2018-06-27T10:52:40.545Z,12.40
2018-06-27T10:55:15.593Z,13.50
2018-06-27T10:57:45.464Z,12.83
2018-06-27T11:00:15.311Z,13.23
2018-06-27T11:02:45.132Z,15.30
2018-06-27T11:05:15.008Z,12.47
2018-06-27T11:07:44.948Z,13.87
2018-06-27T11:10:14.771Z,13.17
2018-06-27T11:12:44.655Z,13.37
2018-06-27T11:15:14.525Z,13.93
2018-06-27T11:17:44.402Z,13.30
2018-06-27T11:20:14.212Z,14.80
2018-06-27T11:22:44.039Z,15.40
2018-06-27T11:25:13.876Z,15.73
2018-06-27T11:27:43.766Z,17.33
2018-06-27T11:30:13.609Z,15.80
2018-06-27T11:32:43.494Z,15.77
2018-06-27T11:35:13.323Z,16.90
2018-06-27T11:37:43.126Z,17.10
2018-06-27T11:40:12.979Z,17.20
2018-06-27T11:42:42.859Z,19.77
2018-06-27T11:45:12.733Z,19.27
2018-06-27T11:47:42.623Z,18.70
2018-06-27T11:50:12.424Z,18.53
2018-06-27T11:52:42.249Z,20.17
2018-06-27T11:55:12.564Z,21.00
2018-06-27T11:57:44.272Z,20.63
2018-06-27T12:00:14.266Z,19.13
2018-06-27T12:02:44.122Z,20.57
2018-06-27T12:05:13.949Z,21.70
2018-06-27T12:07:43.779Z,20.77
2018-06-27T12:10:13.652Z,21.07
2018-06-27T12:12:43.480Z,19.90
2018-06-27T12:15:13.451Z,21.17
2018-06-27T12:17:43.287Z,21.47
2018-06-27T12:20:13.236Z,21.77
2018-06-27T12:22:43.266Z,21.20
2018-06-27T12:27:48.667Z,21.07
2018-06-27T12:30:26.041Z,21.17
2018-06-27T12:32:55.805Z,22.00
2018-06-27T12:35:25.650Z,21.73
2018-06-27T12:37:55.529Z,21.27
2018-06-27T12:40:25.459Z,20.93
2018-06-27T12:42:55.298Z,20.37
2018-06-27T12:45:25.157Z,21.40
2018-06-27T12:47:54.969Z,20.57
2018-06-27T12:50:24.806Z,21.17
2018-06-27T12:52:54.599Z,21.70
2018-06-27T12:55:24.525Z,22.13
2018-06-27T12:57:54.423Z,20.03
2018-06-27T13:00:24.288Z,20.67
2018-06-27T13:02:54.148Z,20.20
2018-06-27T13:05:24.012Z,21.23
2018-06-27T13:07:53.822Z,22.70
2018-06-27T13:10:23.658Z,23.87
2018-06-27T13:12:53.554Z,22.07
2018-06-27T13:15:23.356Z,20.50
2018-06-27T13:17:53.293Z,20.73
2018-06-27T13:20:23.230Z,21.07
2018-06-27T13:22:53.120Z,20.37
2018-06-27T13:25:22.957Z,23.07
2018-06-27T13:27:52.831Z,20.83
2018-06-27T13:30:22.641Z,20.33
2018-06-27T13:32:52.683Z,20.60
2018-06-27T13:35:22.506Z,20.87
2018-06-27T13:37:52.432Z,19.73
2018-06-27T13:40:22.431Z,20.07
2018-06-27T13:42:52.290Z,19.67
2018-06-27T13:45:22.174Z,19.40
2018-06-27T13:47:51.958Z,19.97
2018-06-27T13:50:21.765Z,19.30
2018-06-27T13:52:51.641Z,20.60
2018-06-27T13:55:21.460Z,19.67
2018-06-27T13:57:51.432Z,21.37
2018-06-27T14:00:21.265Z,19.77
2018-06-27T14:02:51.085Z,20.00
2018-06-27T14:05:20.900Z,19.20
2018-06-27T14:07:50.731Z,19.47
2018-06-27T14:10:20.536Z,19.30
2018-06-27T14:12:50.504Z,19.30
2018-06-27T14:15:20.288Z,21.03
2018-06-27T14:17:50.123Z,19.07
2018-06-27T14:20:19.988Z,18.67
2018-06-27T14:22:49.876Z,18.23
2018-06-27T14:25:19.715Z,18.23
2018-06-27T14:27:49.549Z,19.77
2018-06-27T14:30:19.453Z,20.03
2018-06-27T14:32:49.312Z,20.23
2018-06-27T14:35:19.104Z,20.27
2018-06-27T14:37:49.099Z,19.87
2018-06-27T14:40:18.978Z,19.57
2018-06-27T14:42:48.837Z,19.93
2018-06-27T14:45:18.673Z,19.80
2018-06-27T14:47:48.532Z,19.30
2018-06-27T14:50:18.370Z,20.80
2018-06-27T14:52:48.428Z,19.90
2018-06-27T14:55:18.277Z,20.57
2018-06-27T14:57:48.132Z,19.43
2018-06-27T15:00:18.006Z,20.23
2018-06-27T15:02:47.822Z,20.30
2018-06-27T15:05:17.691Z,18.73
2018-06-27T15:07:47.546Z,19.97
2018-06-27T15:10:17.391Z,19.47
2018-06-27T15:12:47.224Z,20.03
2018-06-27T15:15:17.057Z,20.90
2018-06-27T15:17:46.943Z,20.23
2018-06-27T15:20:16.778Z,22.00
2018-06-27T15:22:47.433Z,22.03
2018-06-27T15:25:17.234Z,22.50
2018-06-27T15:27:47.000Z,20.90
2018-06-27T15:30:16.864Z,21.07
2018-06-27T15:32:46.687Z,21.43
2018-06-27T15:35:16.587Z,18.80
2018-06-27T15:37:46.458Z,19.43
2018-06-27T15:40:16.380Z,19.67
2018-06-27T15:42:46.231Z,20.77
2018-06-27T15:45:16.052Z,19.07
2018-06-27T15:47:45.944Z,19.50
2018-06-27T15:50:15.750Z,21.10
2018-06-27T15:52:45.657Z,20.73
2018-06-27T15:55:15.522Z,20.40
2018-06-27T15:57:45.420Z,21.87
2018-06-27T16:00:15.357Z,21.20
2018-06-27T16:02:45.248Z,21.63
2018-06-27T16:05:15.115Z,21.13
2018-06-27T16:07:44.863Z,22.93
2018-06-27T16:10:15.512Z,21.23
2018-06-27T16:12:45.376Z,20.57
2018-06-27T16:15:15.193Z,22.17
2018-06-27T16:17:45.051Z,21.80
2018-06-27T16:20:14.921Z,22.53
2018-06-27T16:22:44.812Z,23.13
2018-06-27T16:25:14.696Z,24.50
2018-06-27T16:27:44.570Z,25.70
2018-06-27T16:30:14.391Z,24.80
2018-06-27T16:32:44.241Z,25.60
2018-06-27T16:35:14.167Z,24.93
2018-06-27T16:37:44.217Z,24.30
2018-06-27T16:40:14.082Z,27.77
2018-06-27T16:42:44.243Z,24.20
2018-06-27T16:45:14.192Z,24.00
2018-06-27T16:47:44.772Z,26.53
2018-06-27T16:50:14.579Z,27.70
2018-06-27T16:52:44.827Z,25.80
2018-06-27T16:55:14.688Z,26.33
2018-06-27T16:57:44.646Z,25.70
2018-06-27T17:00:14.480Z,26.47
2018-06-27T17:02:44.834Z,25.47
2018-06-27T17:05:14.815Z,26.67
2018-06-27T17:07:44.701Z,29.20
2018-06-27T17:10:14.669Z,29.10
2018-06-27T17:12:44.549Z,28.17
2018-06-27T17:15:14.413Z,27.87
2018-06-27T17:17:44.270Z,29.47
2018-06-27T17:20:14.226Z,29.17
2018-06-27T17:22:44.065Z,29.03
2018-06-27T17:25:14.000Z,30.07
2018-06-27T17:27:43.819Z,32.30
2018-06-27T17:30:13.729Z,30.33
2018-06-27T17:32:43.607Z,31.17
2018-06-27T17:35:13.497Z,32.10
2018-06-27T17:37:43.493Z,33.40
2018-06-27T17:40:13.342Z,33.47
2018-06-27T17:42:43.266Z,31.97
2018-06-27T17:45:13.140Z,32.33
2018-06-27T17:47:42.994Z,30.43
2018-06-27T17:50:12.818Z,32.67
2018-06-27T17:52:42.760Z,33.90
2018-06-27T17:55:12.650Z,33.83
2018-06-27T17:57:42.561Z,35.67
2018-06-27T18:00:12.508Z,33.40
2018-06-27T18:02:42.411Z,47.43
2018-06-27T18:05:12.283Z,46.00
2018-06-27T18:07:42.166Z,46.30
2018-06-27T18:10:12.053Z,43.17
2018-06-27T18:12:41.909Z,32.83
2018-06-27T18:15:11.789Z,31.23
2018-06-27T18:17:41.626Z,30.23
2018-06-27T18:20:11.481Z,30.37
2018-06-27T18:22:41.395Z,30.33
2018-06-27T18:25:11.310Z,31.53
2018-06-27T18:27:41.200Z,33.13
2018-06-27T18:30:11.023Z,32.40
2018-06-27T18:32:40.869Z,34.20
2018-06-27T18:35:10.707Z,34.13
2018-06-27T18:37:40.642Z,35.87
2018-06-27T18:40:11.141Z,36.03
2018-06-27T18:42:41.090Z,32.77
2018-06-27T18:45:11.037Z,32.73
2018-06-27T18:47:41.025Z,34.63
2018-06-27T18:50:10.824Z,33.20
2018-06-27T18:52:40.758Z,31.13
2018-06-27T18:55:10.733Z,32.37
2018-06-27T18:57:40.646Z,29.80
2018-06-27T19:00:11.351Z,27.90
2018-06-27T19:02:41.257Z,27.63
2018-06-27T19:05:11.161Z,28.23
2018-06-27T19:07:41.251Z,28.73
2018-06-27T19:10:11.097Z,29.73
2018-06-27T19:12:42.473Z,31.90
2018-06-27T19:15:12.365Z,32.20
2018-06-27T19:17:42.253Z,31.40
2018-06-27T19:20:12.106Z,29.80
2018-06-27T19:22:41.929Z,28.90
2018-06-27T19:25:11.801Z,28.07
2018-06-27T19:27:41.572Z,28.13
2018-06-27T19:30:11.680Z,28.33
2018-06-27T19:32:41.467Z,28.47
2018-06-27T19:35:11.326Z,28.43
2018-06-27T19:37:41.209Z,27.77
2018-06-27T19:40:11.077Z,26.97
2018-06-27T19:42:40.927Z,28.20
2018-06-27T19:47:24.333Z,26.00
2018-06-27T19:49:54.216Z,25.53
2018-06-27T19:52:24.013Z,28.07
2018-06-27T19:54:53.853Z,28.20
2018-06-27T19:57:23.710Z,28.67
2018-06-27T19:59:53.519Z,28.33
2018-06-27T20:02:23.414Z,28.70
2018-06-27T20:04:53.303Z,29.50
2018-06-27T20:07:23.289Z,29.23
2018-06-27T20:09:53.012Z,28.87
2018-06-27T20:12:22.841Z,28.77
2018-06-27T20:14:52.652Z,29.30
2018-06-27T20:17:22.580Z,28.90
2018-06-27T20:19:52.375Z,29.50
2018-06-27T20:22:22.196Z,30.07
2018-06-27T20:24:52.054Z,30.20
2018-06-27T20:27:21.970Z,28.50
2018-06-27T20:29:51.771Z,29.10
2018-06-27T20:32:21.605Z,27.20
2018-06-27T20:34:51.402Z,27.60
2018-06-27T20:37:21.317Z,27.83
2018-06-27T20:39:51.097Z,28.23
2018-06-27T20:42:20.938Z,29.53
2018-06-27T20:44:50.960Z,29.63
2018-06-27T20:47:21.013Z,29.27
2018-06-27T20:49:50.872Z,31.50
2018-06-27T20:52:20.707Z,30.60
2018-06-27T20:54:50.585Z,29.27
2018-06-27T20:57:20.445Z,28.03
2018-06-27T20:59:51.274Z,31.33
2018-06-27T21:02:21.999Z,33.53
2018-06-27T21:04:52.757Z,36.20
2018-06-27T21:07:23.324Z,33.63
2018-06-27T21:09:54.120Z,35.37
2018-06-27T21:12:24.930Z,36.20
2018-06-27T21:14:55.956Z,35.23
2018-06-27T21:17:27.149Z,37.63
2018-06-27T21:19:58.004Z,36.47
2018-06-27T21:22:28.633Z,38.80
2018-06-27T21:24:59.629Z,37.93
2018-06-27T21:27:30.524Z,35.90
2018-06-27T21:30:01.374Z,35.83
2018-06-27T21:32:32.077Z,35.07
2018-06-27T21:35:03.007Z,34.40
2018-06-27T21:37:33.822Z,35.37
2018-06-27T21:40:04.911Z,36.77
2018-06-27T21:42:35.486Z,33.93
2018-06-27T21:45:06.398Z,36.43
2018-06-27T21:47:38.015Z,37.43
2018-06-27T21:50:08.908Z,37.20
2018-06-27T21:52:39.436Z,37.00
2018-06-27T21:55:10.099Z,37.57
2018-06-27T21:57:40.886Z,35.63
2018-06-27T22:00:11.944Z,35.23
2018-06-27T22:02:42.410Z,33.60
2018-06-27T22:05:13.124Z,32.87
2018-06-27T22:07:44.240Z,32.10
2018-06-27T22:10:14.977Z,33.23
2018-06-27T22:12:45.816Z,33.27
2018-06-27T22:15:17.052Z,31.37
2018-06-27T22:17:47.580Z,32.73
2018-06-27T22:20:18.302Z,33.27
2018-06-27T22:22:48.991Z,31.07
2018-06-27T22:25:19.846Z,31.77
2018-06-27T22:27:50.591Z,32.37
2018-06-27T22:30:21.201Z,30.70
2018-06-27T22:32:52.315Z,32.37
2018-06-27T22:35:22.950Z,31.37
2018-06-27T22:37:53.355Z,30.80
2018-06-27T22:40:24.189Z,30.47
2018-06-27T22:42:55.001Z,29.67
2018-06-27T22:45:25.852Z,30.63
2018-06-27T22:47:56.545Z,30.07
2018-06-27T22:50:27.336Z,29.40
2018-06-27T22:52:58.087Z,31.53
2018-06-27T22:55:28.994Z,30.53
2018-06-27T22:57:59.636Z,32.67
2018-06-27T23:00:31.497Z,31.47
2018-06-27T23:03:02.369Z,31.27
2018-06-27T23:05:33.054Z,32.93
2018-06-27T23:08:03.660Z,32.93
2018-06-27T23:10:34.832Z,31.50
2018-06-27T23:13:05.705Z,31.53
2018-06-27T23:15:36.655Z,31.33
2018-06-27T23:18:07.091Z,30.33
2018-06-27T23:20:37.918Z,31.30
2018-06-27T23:23:08.447Z,31.30
2018-06-27T23:25:39.415Z,30.87
2018-06-27T23:28:10.157Z,31.57
2018-06-27T23:30:41.119Z,31.80
2018-06-27T23:33:12.528Z,30.50
2018-06-27T23:35:43.440Z,31.27
2018-06-27T23:38:14.342Z,30.90
2018-06-27T23:40:44.954Z,30.87
2018-06-27T23:43:15.580Z,31.93
2018-06-27T23:45:46.469Z,30.73
2018-06-27T23:48:17.117Z,29.77
2018-06-27T23:50:47.789Z,31.57
2018-06-27T23:53:18.206Z,28.93
2018-06-27T23:55:48.734Z,31.43
2018-06-27T23:58:19.502Z,30.83
